SEJ091 VOMM-VECC
Flight info
| Callsign | SEJ091 |
|---|---|
| Flight time | 1h 57m |
| Altitude | 35000 |
| Route | MMV Q10 CEA |
| Aircraft | B738/M-SDE2E3FGHIRWXY/LB1 |
Departure
| Time | 2026-04-21 12:58 |
|---|---|
| Airport | Chennai International Airport (VOMM) |
Arrival
| Time | 2026-04-21 14:55 |
|---|---|
| Airport | Netaji Subhash Chandra Bose International Airport (VECC) |
| Time | Latitude | Longitude | Altitude | Speed | Heading |
|---|---|---|---|---|---|
| 2026-04-21 12:31 | 12.98465 | 80.16600 | 54 ft | 0 kts | 159° |
| 2026-04-21 12:46 | 12.98469 | 80.16598 | 49 ft | 2 kts | 159° |
| 2026-04-21 12:47 | 12.98484 | 80.16593 | 52 ft | 2 kts | 163° |
| 2026-04-21 12:47 | 12.98500 | 80.16589 | 48 ft | 2 kts | 172° |
| 2026-04-21 12:47 | 12.98517 | 80.16588 | 47 ft | 2 kts | 200° |
| 2026-04-21 12:47 | 12.98529 | 80.16598 | 47 ft | 2 kts | 244° |
| 2026-04-21 12:48 | 12.98531 | 80.16604 | 54 ft | 0 kts | 248° |
| 2026-04-21 12:51 | 12.98531 | 80.16603 | 54 ft | 1 kts | 248° |
| 2026-04-21 12:51 | 12.98526 | 80.16591 | 47 ft | 4 kts | 248° |
| 2026-04-21 12:51 | 12.98514 | 80.16558 | 50 ft | 6 kts | 250° |
| 2026-04-21 12:52 | 12.98501 | 80.16520 | 49 ft | 6 kts | 250° |
| 2026-04-21 12:52 | 12.98487 | 80.16483 | 52 ft | 5 kts | 249° |
| 2026-04-21 12:52 | 12.98474 | 80.16447 | 53 ft | 5 kts | 249° |
| 2026-04-21 12:52 | 12.98461 | 80.16411 | 53 ft | 5 kts | 250° |
| 2026-04-21 12:53 | 12.98448 | 80.16375 | 53 ft | 5 kts | 250° |
| 2026-04-21 12:53 | 12.98435 | 80.16340 | 52 ft | 5 kts | 250° |
| 2026-04-21 12:53 | 12.98422 | 80.16306 | 52 ft | 5 kts | 250° |
| 2026-04-21 12:53 | 12.98410 | 80.16270 | 49 ft | 6 kts | 250° |
| 2026-04-21 12:54 | 12.98389 | 80.16209 | 54 ft | 12 kts | 255° |
| 2026-04-21 12:54 | 12.98442 | 80.16154 | 54 ft | 12 kts | 337° |
| 2026-04-21 12:54 | 12.98511 | 80.16113 | 54 ft | 12 kts | 293° |
| 2026-04-21 12:54 | 12.98489 | 80.16023 | 54 ft | 16 kts | 248° |
| 2026-04-21 12:55 | 12.98440 | 80.15896 | 48 ft | 22 kts | 250° |
| 2026-04-21 12:55 | 12.98373 | 80.15734 | 53 ft | 26 kts | 246° |
| 2026-04-21 12:55 | 12.98367 | 80.15629 | 55 ft | 15 kts | 287° |
| 2026-04-21 12:55 | 12.98387 | 80.15559 | 49 ft | 0 kts | 285° |
| 2026-04-21 12:56 | 12.98387 | 80.15558 | 49 ft | 0 kts | 285° |
| 2026-04-21 12:56 | 12.98391 | 80.15539 | 52 ft | 7 kts | 284° |
| 2026-04-21 12:57 | 12.98413 | 80.15456 | 55 ft | 16 kts | 293° |
| 2026-04-21 12:57 | 12.98493 | 80.15485 | 54 ft | 16 kts | 79° |
| 2026-04-21 12:57 | 12.98534 | 80.15608 | 50 ft | 31 kts | 70° |
| 2026-04-21 12:57 | 12.98712 | 80.16086 | 52 ft | 110 kts | 68° |
| 2026-04-21 12:58 | 12.99047 | 80.17034 | 89 ft | 172 kts | 76° |
| 2026-04-21 12:58 | 12.99423 | 80.18228 | 846 ft | 176 kts | 75° |
| 2026-04-21 12:58 | 12.99874 | 80.19391 | 1791 ft | 175 kts | 70° |
| 2026-04-21 12:58 | 13.00455 | 80.20552 | 2362 ft | 196 kts | 63° |
| 2026-04-21 12:59 | 13.01187 | 80.21854 | 2642 ft | 221 kts | 61° |
| 2026-04-21 12:59 | 13.02007 | 80.23284 | 2845 ft | 241 kts | 61° |
| 2026-04-21 12:59 | 13.02858 | 80.24763 | 3303 ft | 247 kts | 61° |
| 2026-04-21 12:59 | 13.03753 | 80.26324 | 3627 ft | 263 kts | 60° |
| 2026-04-21 13:00 | 13.04696 | 80.27976 | 4144 ft | 271 kts | 60° |
| 2026-04-21 13:00 | 13.05643 | 80.29643 | 5015 ft | 269 kts | 60° |
| 2026-04-21 13:00 | 13.06585 | 80.31303 | 5847 ft | 270 kts | 59° |
| 2026-04-21 13:00 | 13.07535 | 80.32983 | 6558 ft | 274 kts | 60° |
| 2026-04-21 13:01 | 13.08484 | 80.34666 | 7353 ft | 272 kts | 60° |
| 2026-04-21 13:01 | 13.09188 | 80.35916 | 7930 ft | 273 kts | 60° |
| 2026-04-21 13:02 | 13.09425 | 80.36338 | 8084 ft | 275 kts | 60° |
| 2026-04-21 13:02 | 13.10384 | 80.38042 | 8805 ft | 277 kts | 60° |
| 2026-04-21 13:02 | 13.12324 | 80.41498 | 10159 ft | 287 kts | 60° |
| 2026-04-21 13:03 | 13.13362 | 80.43347 | 10318 ft | 310 kts | 60° |
| 2026-04-21 13:03 | 13.14465 | 80.45313 | 10635 ft | 324 kts | 60° |
| 2026-04-21 13:03 | 13.15597 | 80.47334 | 11229 ft | 329 kts | 60° |
| 2026-04-21 13:03 | 13.16744 | 80.49380 | 11834 ft | 333 kts | 60° |
| 2026-04-21 13:04 | 13.17909 | 80.51460 | 12503 ft | 335 kts | 59° |
| 2026-04-21 13:04 | 13.19074 | 80.53540 | 13116 ft | 339 kts | 60° |
| 2026-04-21 13:04 | 13.20257 | 80.55653 | 13669 ft | 344 kts | 59° |
| 2026-04-21 13:04 | 13.21439 | 80.57767 | 14244 ft | 346 kts | 59° |
| 2026-04-21 13:05 | 13.22647 | 80.59925 | 14720 ft | 352 kts | 60° |
| 2026-04-21 13:05 | 13.23870 | 80.62112 | 15325 ft | 353 kts | 59° |
| 2026-04-21 13:05 | 13.25094 | 80.64300 | 15901 ft | 355 kts | 60° |
| 2026-04-21 13:05 | 13.26332 | 80.66514 | 16336 ft | 362 kts | 60° |
| 2026-04-21 13:06 | 13.27592 | 80.68768 | 16777 ft | 367 kts | 60° |
| 2026-04-21 13:06 | 13.28874 | 80.71064 | 17168 ft | 374 kts | 60° |
| 2026-04-21 13:06 | 13.30176 | 80.73393 | 17656 ft | 377 kts | 60° |
| 2026-04-21 13:06 | 13.31486 | 80.75740 | 18146 ft | 381 kts | 60° |
| 2026-04-21 13:07 | 13.32814 | 80.78118 | 18491 ft | 387 kts | 60° |
| 2026-04-21 13:07 | 13.34161 | 80.80532 | 18858 ft | 391 kts | 60° |
| 2026-04-21 13:07 | 13.35502 | 80.82935 | 19253 ft | 395 kts | 60° |
| 2026-04-21 13:07 | 13.36872 | 80.85392 | 19645 ft | 398 kts | 60° |
| 2026-04-21 13:08 | 13.38263 | 80.87886 | 20008 ft | 403 kts | 60° |
| 2026-04-21 13:08 | 13.39657 | 80.90386 | 20463 ft | 405 kts | 60° |
| 2026-04-21 13:08 | 13.41059 | 80.92901 | 20890 ft | 407 kts | 60° |
| 2026-04-21 13:08 | 13.42478 | 80.95447 | 21250 ft | 411 kts | 60° |
| 2026-04-21 13:09 | 13.43909 | 80.98016 | 21567 ft | 417 kts | 60° |
| 2026-04-21 13:09 | 13.45352 | 81.00608 | 22021 ft | 417 kts | 60° |
| 2026-04-21 13:09 | 13.46775 | 81.03165 | 22446 ft | 419 kts | 60° |
| 2026-04-21 13:09 | 13.48230 | 81.05780 | 22816 ft | 422 kts | 60° |
| 2026-04-21 13:10 | 13.49695 | 81.08412 | 23150 ft | 426 kts | 60° |
| 2026-04-21 13:10 | 13.51175 | 81.11074 | 23434 ft | 431 kts | 60° |
| 2026-04-21 13:10 | 13.52663 | 81.13751 | 23807 ft | 431 kts | 60° |
| 2026-04-21 13:10 | 13.54155 | 81.16435 | 24117 ft | 434 kts | 60° |
| 2026-04-21 13:11 | 13.55657 | 81.19137 | 24392 ft | 437 kts | 61° |
| 2026-04-21 13:11 | 13.57166 | 81.21856 | 24683 ft | 440 kts | 61° |
| 2026-04-21 13:11 | 13.58690 | 81.24600 | 24978 ft | 442 kts | 61° |
| 2026-04-21 13:11 | 13.60218 | 81.27353 | 25264 ft | 444 kts | 61° |
| 2026-04-21 13:12 | 13.61751 | 81.30115 | 25570 ft | 446 kts | 61° |
| 2026-04-21 13:12 | 13.63273 | 81.32860 | 25880 ft | 448 kts | 61° |
| 2026-04-21 13:12 | 13.64821 | 81.35651 | 26145 ft | 451 kts | 61° |
| 2026-04-21 13:12 | 13.66379 | 81.38462 | 26407 ft | 453 kts | 61° |
| 2026-04-21 13:13 | 13.67948 | 81.41294 | 26674 ft | 456 kts | 61° |
| 2026-04-21 13:13 | 13.69672 | 81.44035 | 26930 ft | 459 kts | 53° |
| 2026-04-21 13:13 | 13.71799 | 81.46505 | 27188 ft | 462 kts | 43° |
| 2026-04-21 13:13 | 13.74266 | 81.48636 | 27397 ft | 466 kts | 38° |
| 2026-04-21 13:14 | 13.76834 | 81.50683 | 27646 ft | 469 kts | 37° |
| 2026-04-21 13:14 | 13.79438 | 81.52725 | 27906 ft | 471 kts | 37° |
| 2026-04-21 13:14 | 13.82053 | 81.54777 | 28141 ft | 473 kts | 37° |
| 2026-04-21 13:14 | 13.84667 | 81.56843 | 28387 ft | 476 kts | 38° |
| 2026-04-21 13:15 | 13.87294 | 81.58936 | 28622 ft | 478 kts | 38° |
| 2026-04-21 13:15 | 13.89888 | 81.61017 | 28849 ft | 480 kts | 38° |
| 2026-04-21 13:15 | 13.92534 | 81.63148 | 29078 ft | 483 kts | 38° |
| 2026-04-21 13:15 | 13.95184 | 81.65287 | 29303 ft | 485 kts | 38° |
| 2026-04-21 13:16 | 13.97842 | 81.67435 | 29545 ft | 487 kts | 38° |
| 2026-04-21 13:16 | 14.00496 | 81.69581 | 29788 ft | 488 kts | 38° |
| 2026-04-21 13:16 | 14.03181 | 81.71752 | 29979 ft | 490 kts | 38° |
| 2026-04-21 13:16 | 14.05873 | 81.73928 | 30159 ft | 492 kts | 38° |
| 2026-04-21 13:17 | 14.08573 | 81.76111 | 30338 ft | 495 kts | 38° |
| 2026-04-21 13:17 | 14.11293 | 81.78311 | 30428 ft | 499 kts | 38° |
| 2026-04-21 13:17 | 14.14027 | 81.80522 | 30605 ft | 501 kts | 38° |
| 2026-04-21 13:17 | 14.16771 | 81.82742 | 30833 ft | 501 kts | 38° |
| 2026-04-21 13:18 | 14.19487 | 81.84941 | 31058 ft | 502 kts | 38° |
| 2026-04-21 13:18 | 14.22241 | 81.87170 | 31247 ft | 503 kts | 38° |
| 2026-04-21 13:18 | 14.24996 | 81.89401 | 31482 ft | 503 kts | 38° |
| 2026-04-21 13:18 | 14.27741 | 81.91625 | 31760 ft | 502 kts | 38° |
| 2026-04-21 13:19 | 14.30480 | 81.93845 | 32056 ft | 501 kts | 38° |
| 2026-04-21 13:19 | 14.33229 | 81.96073 | 32305 ft | 501 kts | 38° |
| 2026-04-21 13:19 | 14.35963 | 81.98290 | 32539 ft | 501 kts | 38° |
| 2026-04-21 13:19 | 14.38635 | 82.00458 | 32797 ft | 500 kts | 38° |
| 2026-04-21 13:20 | 14.40447 | 82.01928 | 32976 ft | 500 kts | 38° |
| 2026-04-21 13:20 | 14.44098 | 82.04891 | 33335 ft | 499 kts | 38° |
| 2026-04-21 13:20 | 14.46835 | 82.07113 | 33512 ft | 501 kts | 38° |
| 2026-04-21 13:20 | 14.49545 | 82.09314 | 33670 ft | 503 kts | 38° |
| 2026-04-21 13:21 | 14.52302 | 82.11554 | 33918 ft | 502 kts | 38° |
| 2026-04-21 13:21 | 14.55042 | 82.13782 | 34165 ft | 501 kts | 38° |
| 2026-04-21 13:21 | 14.57783 | 82.16010 | 34407 ft | 500 kts | 38° |
| 2026-04-21 13:21 | 14.59591 | 82.17480 | 34549 ft | 499 kts | 38° |
| 2026-04-21 13:22 | 14.62318 | 82.19698 | 34738 ft | 500 kts | 38° |
| 2026-04-21 13:22 | 14.65979 | 82.22678 | 34815 ft | 503 kts | 38° |
| 2026-04-21 13:22 | 14.70556 | 82.26404 | 34822 ft | 501 kts | 38° |
| 2026-04-21 13:23 | 14.76009 | 82.30846 | 34819 ft | 498 kts | 38° |
| 2026-04-21 13:23 | 14.81358 | 82.35206 | 34834 ft | 495 kts | 38° |
| 2026-04-21 13:24 | 14.84323 | 82.37625 | 34822 ft | 495 kts | 38° |
| 2026-04-21 13:24 | 14.89691 | 82.42005 | 34744 ft | 496 kts | 38° |
| 2026-04-21 13:25 | 14.95132 | 82.46448 | 34824 ft | 502 kts | 38° |
| 2026-04-21 13:25 | 15.00631 | 82.50941 | 34835 ft | 506 kts | 38° |
| 2026-04-21 13:26 | 15.06169 | 82.55470 | 34831 ft | 508 kts | 38° |
| 2026-04-21 13:26 | 15.11724 | 82.60014 | 34829 ft | 509 kts | 38° |
| 2026-04-21 13:27 | 15.17272 | 82.64557 | 34827 ft | 508 kts | 38° |
| 2026-04-21 13:27 | 15.22802 | 82.69088 | 34827 ft | 506 kts | 38° |
| 2026-04-21 13:28 | 15.28278 | 82.73579 | 34824 ft | 504 kts | 39° |
| 2026-04-21 13:28 | 15.33760 | 82.78077 | 34827 ft | 502 kts | 39° |
| 2026-04-21 13:29 | 15.39223 | 82.82563 | 34824 ft | 500 kts | 38° |
| 2026-04-21 13:29 | 15.44652 | 82.87051 | 34828 ft | 498 kts | 39° |
| 2026-04-21 13:30 | 15.50027 | 82.91592 | 34833 ft | 498 kts | 39° |
| 2026-04-21 13:30 | 15.55389 | 82.96142 | 34835 ft | 498 kts | 39° |
| 2026-04-21 13:31 | 15.60709 | 83.00650 | 34838 ft | 500 kts | 39° |
| 2026-04-21 13:31 | 15.66112 | 83.05222 | 34838 ft | 502 kts | 39° |
| 2026-04-21 13:32 | 15.71533 | 83.09809 | 34834 ft | 504 kts | 39° |
| 2026-04-21 13:32 | 15.76944 | 83.14393 | 34833 ft | 506 kts | 39° |
| 2026-04-21 13:33 | 15.82411 | 83.19028 | 34833 ft | 507 kts | 39° |
| 2026-04-21 13:33 | 15.87887 | 83.23674 | 34828 ft | 508 kts | 39° |
| 2026-04-21 13:34 | 15.93367 | 83.28326 | 34828 ft | 508 kts | 39° |
| 2026-04-21 13:34 | 15.98805 | 83.32947 | 34831 ft | 508 kts | 39° |
| 2026-04-21 13:35 | 16.04267 | 83.37590 | 34829 ft | 508 kts | 39° |
| 2026-04-21 13:35 | 16.09740 | 83.42248 | 34830 ft | 507 kts | 39° |
| 2026-04-21 13:36 | 16.15204 | 83.46900 | 34834 ft | 506 kts | 39° |
| 2026-04-21 13:36 | 16.20654 | 83.51544 | 34833 ft | 506 kts | 39° |
| 2026-04-21 13:37 | 16.26089 | 83.56179 | 34841 ft | 505 kts | 39° |
| 2026-04-21 13:37 | 16.31519 | 83.60812 | 34829 ft | 505 kts | 39° |
| 2026-04-21 13:38 | 16.36916 | 83.65422 | 34831 ft | 504 kts | 39° |
| 2026-04-21 13:38 | 16.42340 | 83.70058 | 34830 ft | 504 kts | 39° |
| 2026-04-21 13:39 | 16.47755 | 83.74689 | 34832 ft | 504 kts | 39° |
| 2026-04-21 13:39 | 16.53175 | 83.79328 | 34833 ft | 504 kts | 39° |
| 2026-04-21 13:40 | 16.58600 | 83.83975 | 34831 ft | 504 kts | 39° |
| 2026-04-21 13:40 | 16.63996 | 83.88601 | 34829 ft | 505 kts | 39° |
| 2026-04-21 13:41 | 16.69430 | 83.93263 | 34828 ft | 506 kts | 39° |
| 2026-04-21 13:41 | 16.74875 | 83.97939 | 34826 ft | 506 kts | 39° |
| 2026-04-21 13:42 | 16.80241 | 84.02550 | 34828 ft | 507 kts | 39° |
| 2026-04-21 13:42 | 16.85685 | 84.07229 | 34826 ft | 507 kts | 39° |
| 2026-04-21 13:43 | 16.91157 | 84.11890 | 34826 ft | 508 kts | 38° |
| 2026-04-21 13:43 | 16.96614 | 84.16524 | 34829 ft | 508 kts | 38° |
| 2026-04-21 13:44 | 17.02084 | 84.21181 | 34819 ft | 508 kts | 38° |
| 2026-04-21 13:44 | 17.07559 | 84.25850 | 34827 ft | 508 kts | 38° |
| 2026-04-21 13:45 | 17.13037 | 84.30527 | 34820 ft | 508 kts | 38° |
| 2026-04-21 13:45 | 17.18505 | 84.35198 | 34817 ft | 507 kts | 38° |
| 2026-04-21 13:46 | 17.23967 | 84.39868 | 34820 ft | 506 kts | 38° |
| 2026-04-21 13:46 | 17.29381 | 84.44501 | 34816 ft | 505 kts | 38° |
| 2026-04-21 13:47 | 17.34826 | 84.49164 | 34816 ft | 505 kts | 38° |
| 2026-04-21 13:47 | 17.40273 | 84.53813 | 34814 ft | 505 kts | 38° |
| 2026-04-21 13:48 | 17.45729 | 84.58455 | 34813 ft | 505 kts | 38° |
| 2026-04-21 13:48 | 17.51185 | 84.63103 | 34815 ft | 505 kts | 38° |
| 2026-04-21 13:49 | 17.56608 | 84.67732 | 34813 ft | 505 kts | 38° |
| 2026-04-21 13:49 | 17.62057 | 84.72387 | 34813 ft | 505 kts | 38° |
| 2026-04-21 13:50 | 17.67504 | 84.77043 | 34815 ft | 505 kts | 38° |
| 2026-04-21 13:50 | 17.72956 | 84.81719 | 34812 ft | 506 kts | 38° |
| 2026-04-21 13:51 | 17.78393 | 84.86395 | 34814 ft | 507 kts | 38° |
| 2026-04-21 13:51 | 17.83853 | 84.91096 | 34808 ft | 507 kts | 38° |
| 2026-04-21 13:52 | 17.89290 | 84.95778 | 34805 ft | 508 kts | 38° |
| 2026-04-21 13:52 | 17.94687 | 85.00430 | 34815 ft | 508 kts | 38° |
| 2026-04-21 13:53 | 18.00153 | 85.05145 | 34794 ft | 509 kts | 38° |
| 2026-04-21 13:53 | 18.05626 | 85.09870 | 34808 ft | 509 kts | 38° |
| 2026-04-21 13:54 | 18.11097 | 85.14597 | 34802 ft | 509 kts | 38° |
| 2026-04-21 13:54 | 18.16571 | 85.19330 | 34800 ft | 509 kts | 38° |
| 2026-04-21 13:55 | 18.22026 | 85.24051 | 34804 ft | 509 kts | 38° |
| 2026-04-21 13:55 | 18.27499 | 85.28792 | 34798 ft | 510 kts | 38° |
| 2026-04-21 13:56 | 18.32974 | 85.33539 | 34801 ft | 510 kts | 38° |
| 2026-04-21 13:56 | 18.38441 | 85.38282 | 34808 ft | 510 kts | 38° |
| 2026-04-21 13:57 | 18.43920 | 85.43040 | 34794 ft | 511 kts | 38° |
| 2026-04-21 13:57 | 18.49400 | 85.47803 | 34808 ft | 511 kts | 38° |
| 2026-04-21 13:58 | 18.54867 | 85.52559 | 34796 ft | 512 kts | 38° |
| 2026-04-21 13:58 | 18.60366 | 85.57346 | 34800 ft | 512 kts | 38° |
| 2026-04-21 13:59 | 18.65874 | 85.62146 | 34794 ft | 512 kts | 38° |
| 2026-04-21 13:59 | 18.71365 | 85.66936 | 34809 ft | 513 kts | 38° |
| 2026-04-21 14:00 | 18.76826 | 85.71703 | 34810 ft | 512 kts | 38° |
| 2026-04-21 14:00 | 18.82324 | 85.76507 | 34804 ft | 512 kts | 38° |
| 2026-04-21 14:01 | 18.87811 | 85.81307 | 34804 ft | 512 kts | 38° |
| 2026-04-21 14:01 | 18.93297 | 85.86107 | 34799 ft | 512 kts | 38° |
| 2026-04-21 14:02 | 18.98806 | 85.90869 | 34799 ft | 512 kts | 37° |
| 2026-04-21 14:03 | 19.07092 | 85.97996 | 34800 ft | 511 kts | 37° |
| 2026-04-21 14:03 | 19.12482 | 86.02648 | 34800 ft | 512 kts | 37° |
| 2026-04-21 14:04 | 19.17996 | 86.07417 | 34797 ft | 512 kts | 37° |
| 2026-04-21 14:04 | 19.23520 | 86.12198 | 34787 ft | 512 kts | 37° |
| 2026-04-21 14:05 | 19.29044 | 86.16983 | 34787 ft | 513 kts | 37° |
| 2026-04-21 14:05 | 19.34569 | 86.21774 | 34803 ft | 513 kts | 37° |
| 2026-04-21 14:06 | 19.40091 | 86.26565 | 34796 ft | 513 kts | 37° |
| 2026-04-21 14:06 | 19.45582 | 86.31335 | 34797 ft | 514 kts | 37° |
| 2026-04-21 14:07 | 19.51120 | 86.36150 | 34799 ft | 515 kts | 37° |
| 2026-04-21 14:07 | 19.56662 | 86.40974 | 34796 ft | 516 kts | 37° |
| 2026-04-21 14:08 | 19.62213 | 86.45808 | 34796 ft | 516 kts | 37° |
| 2026-04-21 14:08 | 19.66838 | 86.49831 | 34795 ft | 517 kts | 37° |
| 2026-04-21 14:09 | 19.72403 | 86.54667 | 34795 ft | 517 kts | 37° |
| 2026-04-21 14:09 | 19.77981 | 86.59521 | 34796 ft | 517 kts | 37° |
| 2026-04-21 14:10 | 19.83545 | 86.64370 | 34787 ft | 516 kts | 37° |
| 2026-04-21 14:10 | 19.89059 | 86.69180 | 34785 ft | 515 kts | 37° |
| 2026-04-21 14:11 | 19.94589 | 86.74005 | 34779 ft | 513 kts | 37° |
| 2026-04-21 14:11 | 20.00096 | 86.78807 | 34779 ft | 512 kts | 37° |
| 2026-04-21 14:12 | 20.05596 | 86.83607 | 34771 ft | 511 kts | 37° |
| 2026-04-21 14:12 | 20.11092 | 86.88410 | 34788 ft | 510 kts | 37° |
| 2026-04-21 14:13 | 20.16570 | 86.93203 | 34777 ft | 509 kts | 37° |
| 2026-04-21 14:13 | 20.22038 | 86.97991 | 34762 ft | 508 kts | 37° |
| 2026-04-21 14:14 | 20.27369 | 87.02664 | 34772 ft | 507 kts | 37° |
| 2026-04-21 14:14 | 20.32808 | 87.07434 | 34762 ft | 506 kts | 37° |
| 2026-04-21 14:15 | 20.38243 | 87.12209 | 34766 ft | 506 kts | 37° |
| 2026-04-21 14:15 | 20.43674 | 87.16984 | 34768 ft | 506 kts | 37° |
| 2026-04-21 14:16 | 20.49104 | 87.21759 | 34773 ft | 505 kts | 37° |
| 2026-04-21 14:16 | 20.54529 | 87.26525 | 34763 ft | 504 kts | 37° |
| 2026-04-21 14:17 | 20.59937 | 87.31280 | 34757 ft | 503 kts | 37° |
| 2026-04-21 14:17 | 20.65321 | 87.36023 | 34756 ft | 501 kts | 37° |
| 2026-04-21 14:18 | 20.70652 | 87.40722 | 34761 ft | 499 kts | 37° |
| 2026-04-21 14:18 | 20.76000 | 87.45443 | 34760 ft | 498 kts | 37° |
| 2026-04-21 14:19 | 20.81334 | 87.50162 | 34777 ft | 497 kts | 38° |
| 2026-04-21 14:19 | 20.86311 | 87.55315 | 34768 ft | 498 kts | 44° |
| 2026-04-21 14:20 | 20.91096 | 87.60701 | 34760 ft | 498 kts | 45° |
| 2026-04-21 14:20 | 20.95886 | 87.66065 | 34761 ft | 498 kts | 44° |
| 2026-04-21 14:21 | 21.00709 | 87.71390 | 34744 ft | 498 kts | 44° |
| 2026-04-21 14:21 | 21.03103 | 87.74020 | 34429 ft | 501 kts | 44° |
| 2026-04-21 14:21 | 21.05524 | 87.76680 | 34074 ft | 495 kts | 44° |
| 2026-04-21 14:21 | 21.06540 | 87.77796 | 33900 ft | 494 kts | 44° |
| 2026-04-21 14:23 | 21.08906 | 87.80399 | 33469 ft | 489 kts | 44° |
| 2026-04-21 14:23 | 21.10210 | 87.81835 | 33224 ft | 487 kts | 44° |
| 2026-04-21 14:23 | 21.12568 | 87.84432 | 32799 ft | 483 kts | 44° |
| 2026-04-21 14:23 | 21.14906 | 87.87008 | 32359 ft | 480 kts | 43° |
| 2026-04-21 14:24 | 21.17228 | 87.89569 | 31942 ft | 477 kts | 43° |
| 2026-04-21 14:24 | 21.19511 | 87.92088 | 31534 ft | 474 kts | 43° |
| 2026-04-21 14:24 | 21.21803 | 87.94618 | 31127 ft | 471 kts | 43° |
| 2026-04-21 14:24 | 21.24076 | 87.97128 | 30725 ft | 469 kts | 43° |
| 2026-04-21 14:25 | 21.26342 | 87.99632 | 30311 ft | 466 kts | 43° |
| 2026-04-21 14:25 | 21.28509 | 88.02026 | 29918 ft | 465 kts | 44° |
| 2026-04-21 14:25 | 21.30730 | 88.04482 | 29467 ft | 463 kts | 44° |
| 2026-04-21 14:25 | 21.32964 | 88.06954 | 29025 ft | 460 kts | 44° |
| 2026-04-21 14:26 | 21.35185 | 88.09413 | 28585 ft | 457 kts | 44° |
| 2026-04-21 14:26 | 21.37386 | 88.11851 | 28198 ft | 453 kts | 44° |
| 2026-04-21 14:26 | 21.39569 | 88.14270 | 27769 ft | 450 kts | 44° |
| 2026-04-21 14:26 | 21.41739 | 88.16676 | 27358 ft | 446 kts | 44° |
| 2026-04-21 14:27 | 21.43893 | 88.19065 | 26948 ft | 443 kts | 44° |
| 2026-04-21 14:27 | 21.46030 | 88.21436 | 26555 ft | 441 kts | 44° |
| 2026-04-21 14:27 | 21.48158 | 88.23798 | 26134 ft | 439 kts | 43° |
| 2026-04-21 14:27 | 21.50252 | 88.26123 | 25736 ft | 438 kts | 43° |
| 2026-04-21 14:28 | 21.52387 | 88.28445 | 25328 ft | 435 kts | 39° |
| 2026-04-21 14:28 | 21.54779 | 88.30393 | 24919 ft | 429 kts | 27° |
| 2026-04-21 14:28 | 21.57399 | 88.31879 | 24560 ft | 422 kts | 18° |
| 2026-04-21 14:28 | 21.60152 | 88.32885 | 24194 ft | 414 kts | 11° |
| 2026-04-21 14:29 | 21.62933 | 88.33700 | 23810 ft | 413 kts | 9° |
| 2026-04-21 14:29 | 21.65716 | 88.34492 | 23411 ft | 412 kts | 9° |
| 2026-04-21 14:29 | 21.68489 | 88.35282 | 22941 ft | 412 kts | 10° |
| 2026-04-21 14:29 | 21.71253 | 88.36079 | 22514 ft | 410 kts | 10° |
| 2026-04-21 14:30 | 21.73995 | 88.36879 | 22117 ft | 408 kts | 11° |
| 2026-04-21 14:30 | 21.76691 | 88.37673 | 21718 ft | 405 kts | 11° |
| 2026-04-21 14:30 | 21.79407 | 88.38476 | 21336 ft | 403 kts | 11° |
| 2026-04-21 14:30 | 21.82103 | 88.39276 | 20940 ft | 400 kts | 11° |
| 2026-04-21 14:31 | 21.84783 | 88.40072 | 20551 ft | 398 kts | 11° |
| 2026-04-21 14:31 | 21.87442 | 88.40863 | 20161 ft | 396 kts | 11° |
| 2026-04-21 14:31 | 21.90089 | 88.41651 | 19770 ft | 394 kts | 11° |
| 2026-04-21 14:31 | 21.92725 | 88.42435 | 19386 ft | 391 kts | 11° |
| 2026-04-21 14:32 | 21.95345 | 88.43215 | 19013 ft | 389 kts | 11° |
| 2026-04-21 14:32 | 21.97923 | 88.43982 | 18626 ft | 388 kts | 11° |
| 2026-04-21 14:32 | 22.00519 | 88.44755 | 18246 ft | 386 kts | 12° |
| 2026-04-21 14:32 | 22.00949 | 88.44883 | 18179 ft | 386 kts | 12° |
| 2026-04-21 14:33 | 22.01803 | 88.45137 | 18047 ft | 385 kts | 12° |
| 2026-04-21 14:33 | 22.04377 | 88.45904 | 17623 ft | 381 kts | 12° |
| 2026-04-21 14:33 | 22.06895 | 88.46657 | 17202 ft | 370 kts | 12° |
| 2026-04-21 14:33 | 22.09342 | 88.47388 | 16839 ft | 360 kts | 11° |
| 2026-04-21 14:34 | 22.11724 | 88.48100 | 16479 ft | 350 kts | 11° |
| 2026-04-21 14:34 | 22.14046 | 88.48793 | 16130 ft | 341 kts | 11° |
| 2026-04-21 14:34 | 22.16320 | 88.49471 | 15818 ft | 337 kts | 11° |
| 2026-04-21 14:34 | 22.18549 | 88.50134 | 15496 ft | 337 kts | 11° |
| 2026-04-21 14:35 | 22.20804 | 88.50806 | 15160 ft | 336 kts | 11° |
| 2026-04-21 14:35 | 22.23062 | 88.51480 | 14831 ft | 336 kts | 11° |
| 2026-04-21 14:35 | 22.25315 | 88.52153 | 14494 ft | 335 kts | 11° |
| 2026-04-21 14:35 | 22.27564 | 88.52825 | 14161 ft | 335 kts | 11° |
| 2026-04-21 14:36 | 22.29824 | 88.53451 | 13824 ft | 333 kts | 6° |
| 2026-04-21 14:36 | 22.32107 | 88.53787 | 13502 ft | 330 kts | 1° |
| 2026-04-21 14:36 | 22.34389 | 88.53998 | 13127 ft | 328 kts | 0° |
| 2026-04-21 14:36 | 22.36662 | 88.54187 | 12785 ft | 328 kts | 0° |
| 2026-04-21 14:37 | 22.38908 | 88.54383 | 12423 ft | 320 kts | 1° |
| 2026-04-21 14:37 | 22.41103 | 88.54589 | 12073 ft | 312 kts | 1° |
| 2026-04-21 14:37 | 22.43219 | 88.54797 | 11759 ft | 305 kts | 1° |
| 2026-04-21 14:37 | 22.45311 | 88.55009 | 11438 ft | 298 kts | 1° |
| 2026-04-21 14:38 | 22.47360 | 88.55221 | 11118 ft | 293 kts | 2° |
| 2026-04-21 14:38 | 22.49378 | 88.55431 | 10814 ft | 293 kts | 2° |
| 2026-04-21 14:38 | 22.51435 | 88.55644 | 10521 ft | 298 kts | 2° |
| 2026-04-21 14:38 | 22.53518 | 88.55862 | 10205 ft | 304 kts | 2° |
| 2026-04-21 14:39 | 22.55595 | 88.56080 | 10028 ft | 302 kts | 2° |
| 2026-04-21 14:39 | 22.57672 | 88.56301 | 9860 ft | 296 kts | 2° |
| 2026-04-21 14:39 | 22.59692 | 88.56517 | 9718 ft | 289 kts | 2° |
| 2026-04-21 14:39 | 22.61688 | 88.56728 | 9408 ft | 288 kts | 2° |
| 2026-04-21 14:40 | 22.63685 | 88.56939 | 9112 ft | 287 kts | 2° |
| 2026-04-21 14:40 | 22.65664 | 88.57148 | 8819 ft | 286 kts | 2° |
| 2026-04-21 14:40 | 22.67640 | 88.57358 | 8524 ft | 284 kts | 2° |
| 2026-04-21 14:40 | 22.69605 | 88.57566 | 8237 ft | 284 kts | 3° |
| 2026-04-21 14:41 | 22.71569 | 88.57768 | 7930 ft | 283 kts | 2° |
| 2026-04-21 14:41 | 22.73532 | 88.57960 | 7635 ft | 282 kts | 2° |
| 2026-04-21 14:41 | 22.75485 | 88.58150 | 7387 ft | 280 kts | 2° |
| 2026-04-21 14:41 | 22.77403 | 88.58337 | 7251 ft | 273 kts | 2° |
| 2026-04-21 14:42 | 22.79273 | 88.58521 | 7123 ft | 266 kts | 2° |
| 2026-04-21 14:42 | 22.81098 | 88.58700 | 7002 ft | 259 kts | 2° |
| 2026-04-21 14:42 | 22.82873 | 88.58875 | 6882 ft | 252 kts | 2° |
| 2026-04-21 14:42 | 22.84601 | 88.59044 | 6702 ft | 249 kts | 2° |
| 2026-04-21 14:43 | 22.86317 | 88.59268 | 6466 ft | 247 kts | 5° |
| 2026-04-21 14:43 | 22.87991 | 88.59546 | 6255 ft | 237 kts | 6° |
| 2026-04-21 14:43 | 22.89571 | 88.59811 | 6004 ft | 228 kts | 5° |
| 2026-04-21 14:43 | 22.91113 | 88.60065 | 5742 ft | 221 kts | 5° |
| 2026-04-21 14:44 | 22.92626 | 88.60311 | 5538 ft | 220 kts | 5° |
| 2026-04-21 14:44 | 22.94139 | 88.60555 | 5320 ft | 220 kts | 5° |
| 2026-04-21 14:44 | 22.95653 | 88.60764 | 5173 ft | 216 kts | 4° |
| 2026-04-21 14:44 | 22.97177 | 88.60964 | 4945 ft | 223 kts | 4° |
| 2026-04-21 14:45 | 22.98726 | 88.61179 | 4719 ft | 225 kts | 4° |
| 2026-04-21 14:45 | 23.00269 | 88.61114 | 4460 ft | 221 kts | 336° |
| 2026-04-21 14:45 | 23.01478 | 88.60195 | 4229 ft | 208 kts | 302° |
| 2026-04-21 14:45 | 23.01918 | 88.58801 | 3983 ft | 190 kts | 264° |
| 2026-04-21 14:46 | 23.01502 | 88.57538 | 3737 ft | 181 kts | 233° |
| 2026-04-21 14:46 | 23.00985 | 88.56808 | 3598 ft | 180 kts | 230° |
| 2026-04-21 14:46 | 22.99944 | 88.55416 | 3301 ft | 177 kts | 230° |
| 2026-04-21 14:46 | 22.99418 | 88.54719 | 3131 ft | 176 kts | 230° |
| 2026-04-21 14:47 | 22.98403 | 88.53370 | 2814 ft | 174 kts | 229° |
| 2026-04-21 14:47 | 22.97632 | 88.52341 | 2583 ft | 175 kts | 229° |
| 2026-04-21 14:47 | 22.96868 | 88.51311 | 2343 ft | 175 kts | 229° |
| 2026-04-21 14:47 | 22.96112 | 88.50279 | 2112 ft | 175 kts | 230° |
| 2026-04-21 14:48 | 22.95350 | 88.49246 | 2043 ft | 176 kts | 230° |
| 2026-04-21 14:48 | 22.94450 | 88.48368 | 1983 ft | 174 kts | 198° |
| 2026-04-21 14:48 | 22.93278 | 88.48209 | 1989 ft | 170 kts | 188° |
| 2026-04-21 14:48 | 22.92101 | 88.47997 | 2010 ft | 172 kts | 190° |
| 2026-04-21 14:49 | 22.90938 | 88.47806 | 1979 ft | 165 kts | 189° |
| 2026-04-21 14:49 | 22.89816 | 88.47650 | 1992 ft | 165 kts | 188° |
| 2026-04-21 14:49 | 22.88684 | 88.47507 | 1981 ft | 162 kts | 188° |
| 2026-04-21 14:49 | 22.87579 | 88.47374 | 1978 ft | 158 kts | 187° |
| 2026-04-21 14:50 | 22.86854 | 88.47289 | 1989 ft | 158 kts | 187° |
| 2026-04-21 14:50 | 22.85397 | 88.47117 | 2006 ft | 164 kts | 186° |
| 2026-04-21 14:50 | 22.84141 | 88.46970 | 2031 ft | 191 kts | 186° |
| 2026-04-21 14:50 | 22.82821 | 88.46815 | 2000 ft | 189 kts | 186° |
| 2026-04-21 14:51 | 22.81526 | 88.46664 | 1990 ft | 187 kts | 186° |
| 2026-04-21 14:51 | 22.80223 | 88.46510 | 2003 ft | 189 kts | 186° |
| 2026-04-21 14:51 | 22.78912 | 88.46357 | 1992 ft | 188 kts | 185° |
| 2026-04-21 14:51 | 22.77645 | 88.46209 | 1940 ft | 174 kts | 186° |
| 2026-04-21 14:52 | 22.76489 | 88.46074 | 1756 ft | 161 kts | 187° |
| 2026-04-21 14:52 | 22.75420 | 88.45949 | 1605 ft | 156 kts | 187° |
| 2026-04-21 14:52 | 22.74347 | 88.45819 | 1381 ft | 153 kts | 188° |
| 2026-04-21 14:52 | 22.73291 | 88.45677 | 1183 ft | 153 kts | 186° |
| 2026-04-21 14:53 | 22.72225 | 88.45545 | 995 ft | 157 kts | 188° |
| 2026-04-21 14:53 | 22.71126 | 88.45436 | 731 ft | 159 kts | 184° |
| 2026-04-21 14:53 | 22.70051 | 88.45318 | 454 ft | 146 kts | 184° |
| 2026-04-21 14:53 | 22.69100 | 88.45197 | 351 ft | 136 kts | 184° |
| 2026-04-21 14:54 | 22.68490 | 88.45131 | 289 ft | 132 kts | 182° |
| 2026-04-21 14:54 | 22.67577 | 88.45023 | 122 ft | 132 kts | 185° |
| 2026-04-21 14:54 | 22.66672 | 88.44920 | 28 ft | 124 kts | 185° |
| 2026-04-21 14:54 | 22.65910 | 88.44834 | 27 ft | 93 kts | 186° |
| 2026-04-21 14:55 | 22.65212 | 88.44752 | 30 ft | 66 kts | 186° |
| 2026-04-21 14:55 | 22.64790 | 88.44703 | 26 ft | 56 kts | 186° |
| 2026-04-21 14:55 | 22.64631 | 88.44653 | 26 ft | 13 kts | 250° |
| 2026-04-21 14:55 | 22.64642 | 88.44591 | 24 ft | 13 kts | 285° |
| 2026-04-21 14:56 | 22.64652 | 88.44496 | 23 ft | 13 kts | 276° |
| 2026-04-21 14:56 | 22.64661 | 88.44404 | 23 ft | 12 kts | 276° |
| 2026-04-21 14:56 | 22.64671 | 88.44314 | 23 ft | 12 kts | 277° |
| 2026-04-21 14:56 | 22.64681 | 88.44226 | 23 ft | 12 kts | 276° |
| 2026-04-21 14:57 | 22.64625 | 88.44187 | 23 ft | 11 kts | 187° |
| 2026-04-21 14:57 | 22.64554 | 88.44178 | 23 ft | 10 kts | 186° |
| 2026-04-21 14:57 | 22.64484 | 88.44169 | 23 ft | 10 kts | 186° |
| 2026-04-21 14:57 | 22.64416 | 88.44162 | 24 ft | 10 kts | 186° |
| 2026-04-21 14:58 | 22.64351 | 88.44154 | 22 ft | 9 kts | 185° |
| 2026-04-21 14:58 | 22.64302 | 88.44141 | 22 ft | 1 kts | 235° |
| 2026-04-21 14:58 | 22.64300 | 88.44124 | 22 ft | 4 kts | 272° |
| 2026-04-21 14:58 | 22.64304 | 88.44077 | 22 ft | 7 kts | 276° |
| 2026-04-21 14:59 | 22.64305 | 88.44070 | 22 ft | 1 kts | 276° |
| 2026-04-21 14:59 | 22.64306 | 88.44062 | 22 ft | 2 kts | 275° |
| 2026-04-21 14:59 | 22.64306 | 88.44055 | 22 ft | 0 kts | 275° |